createdAt,value
2019-02-11T00:00:29.727Z,99394.24
2019-02-11T00:02:58.286Z,99398.89
2019-02-11T00:05:26.510Z,99407.66
2019-02-11T00:07:54.691Z,99415.79
2019-02-11T00:10:23.219Z,99415.15
2019-02-11T00:12:51.405Z,99424.59
2019-02-11T00:15:19.593Z,99429.36
2019-02-11T00:17:47.796Z,99432.00
2019-02-11T00:20:16.046Z,99458.74
2019-02-11T00:22:44.242Z,99446.17
2019-02-11T00:25:12.496Z,99452.42
2019-02-11T00:27:40.957Z,99461.30
2019-02-11T00:30:10.691Z,99470.19
2019-02-11T00:32:43.299Z,99469.83
2019-02-11T00:35:11.502Z,99477.56
2019-02-11T00:37:47.661Z,99483.48
2019-02-11T00:40:16.155Z,99490.22
2019-02-11T00:42:44.352Z,99489.86
2019-02-11T00:45:12.534Z,99492.82
2019-02-11T00:47:40.742Z,99501.70
2019-02-11T00:50:10.910Z,99504.67
2019-02-11T00:52:39.380Z,99518.20
2019-02-11T00:55:07.565Z,99531.27
2019-02-11T00:57:35.761Z,99528.74
2019-02-11T01:00:05.323Z,99529.70
2019-02-11T01:02:33.526Z,99535.63
2019-02-11T01:05:01.714Z,99536.91
2019-02-11T01:07:29.911Z,99555.05
2019-02-11T01:09:58.101Z,99549.05
2019-02-11T01:12:26.619Z,99556.82
2019-02-11T01:14:54.808Z,99568.84
2019-02-11T01:17:23.008Z,99572.13
2019-02-11T01:19:51.203Z,99579.22
2019-02-11T01:22:19.724Z,99583.99
2019-02-11T01:24:48.204Z,99583.31
2019-02-11T01:27:16.705Z,99587.91
2019-02-11T01:29:45.167Z,99602.78
2019-02-11T01:32:13.377Z,99594.81
2019-02-11T01:34:41.558Z,99608.67
2019-02-11T01:37:10.119Z,99614.60
2019-02-11T01:39:38.323Z,99620.53
2019-02-11T01:42:06.517Z,99626.47
2019-02-11T01:44:34.704Z,99631.56
2019-02-11T01:47:02.900Z,99637.17
2019-02-11T01:49:31.381Z,99641.98
2019-02-11T01:51:59.576Z,99648.91
2019-02-11T01:54:27.766Z,99654.81
2019-02-11T01:56:55.958Z,99659.10
2019-02-11T01:59:24.504Z,99671.33
2019-02-11T02:01:52.707Z,99663.71
2019-02-11T02:04:20.926Z,99682.55
2019-02-11T02:06:49.418Z,99679.91
2019-02-11T02:09:17.604Z,99698.75
2019-02-11T02:11:45.807Z,99696.42
2019-02-11T02:14:14.001Z,99698.06
2019-02-11T02:16:42.191Z,99699.39
2019-02-11T02:19:10.381Z,99708.97
2019-02-11T02:21:38.583Z,99711.30
2019-02-11T02:24:06.774Z,99713.95
2019-02-11T02:26:35.320Z,99725.53
2019-02-11T02:29:03.510Z,99722.24
2019-02-11T02:31:31.718Z,99726.56
2019-02-11T02:33:59.916Z,99718.31
2019-02-11T02:36:28.148Z,99720.34
2019-02-11T02:38:56.601Z,99732.73
2019-02-11T02:41:24.904Z,99735.38
2019-02-11T02:43:55.461Z,99732.25
2019-02-11T02:46:23.017Z,99753.22
2019-02-11T02:48:51.205Z,99750.57
2019-02-11T02:51:19.403Z,99743.95
2019-02-11T02:53:47.584Z,99760.64
2019-02-11T02:56:15.792Z,99749.89
2019-02-11T02:58:43.987Z,99759.28
2019-02-11T03:01:12.525Z,99761.92
2019-02-11T03:03:40.716Z,99764.41
2019-02-11T03:06:09.179Z,99768.52
2019-02-11T03:08:37.363Z,99762.86
2019-02-11T03:11:05.566Z,99777.25
2019-02-11T03:13:33.760Z,99781.03
2019-02-11T03:16:01.956Z,99785.64
2019-02-11T03:18:30.460Z,99780.99
2019-02-11T03:20:58.666Z,99785.80
2019-02-11T03:23:26.858Z,99787.77
2019-02-11T03:25:55.057Z,99794.22
2019-02-11T03:28:23.578Z,99802.97
2019-02-11T03:30:52.261Z,99807.10
2019-02-11T03:33:20.458Z,99821.98
2019-02-11T03:35:48.646Z,99824.44
2019-02-11T03:38:16.854Z,99814.17
2019-02-11T03:40:45.044Z,99830.70
2019-02-11T03:43:13.238Z,99823.56
2019-02-11T03:45:41.432Z,99830.19
2019-02-11T03:48:09.646Z,99847.71
2019-02-11T03:50:37.840Z,99853.00
2019-02-11T03:53:06.280Z,99849.36
2019-02-11T03:55:34.815Z,99853.33
2019-02-11T03:58:03.302Z,99859.95
2019-02-11T04:00:31.781Z,99854.65
2019-02-11T04:02:59.973Z,99870.38
2019-02-11T04:05:28.169Z,99885.42
2019-02-11T04:07:56.353Z,99885.42
2019-02-11T04:10:24.553Z,99903.95
2019-02-11T04:12:52.743Z,99896.00
2019-02-11T04:15:21.234Z,99901.30
2019-02-11T04:17:49.420Z,99902.95
2019-02-11T04:20:17.626Z,99927.09
2019-02-11T04:22:45.808Z,99931.06
2019-02-11T04:25:14.025Z,99919.48
2019-02-11T04:27:42.220Z,99937.69
2019-02-11T04:30:10.685Z,99932.58
2019-02-11T04:32:38.891Z,99940.01
2019-02-11T04:35:07.343Z,99938.69
2019-02-11T04:37:35.564Z,99942.33
2019-02-11T04:40:05.679Z,99951.44
2019-02-11T04:42:33.892Z,99949.95
2019-02-11T04:45:02.387Z,99952.59
2019-02-11T04:47:30.570Z,99959.08
2019-02-11T04:49:58.779Z,99957.95
2019-02-11T04:52:26.958Z,99971.86
2019-02-11T04:54:55.526Z,99971.88
2019-02-11T04:57:23.716Z,99979.66
2019-02-11T04:59:51.963Z,99986.79
2019-02-11T05:02:20.420Z,100000.02
2019-02-11T05:04:49.525Z,100005.31
2019-02-11T05:07:17.734Z,99997.05
2019-02-11T05:09:45.958Z,100010.61
2019-02-11T05:12:14.156Z,100006.64
2019-02-11T05:14:44.256Z,100010.42
2019-02-11T05:17:12.282Z,100012.06
2019-02-11T05:19:40.470Z,100018.20
2019-02-11T05:22:08.999Z,100021.50
2019-02-11T05:24:37.200Z,100024.95
2019-02-11T05:27:05.658Z,100039.84
2019-02-11T05:29:33.863Z,100036.71
2019-02-11T05:32:02.412Z,100038.69
2019-02-11T05:34:30.622Z,100049.60
2019-02-11T05:36:58.807Z,100057.84
2019-02-11T05:39:27.016Z,100056.84
2019-02-11T05:41:55.208Z,100075.89
2019-02-11T05:44:23.393Z,100057.84
2019-02-11T05:46:51.599Z,100070.41
2019-02-11T05:49:19.794Z,100058.81
2019-02-11T05:51:48.315Z,100064.44
2019-02-11T05:54:16.514Z,100067.09
2019-02-11T05:56:44.718Z,100079.33
2019-02-11T05:59:12.911Z,100082.30
2019-02-11T06:01:41.528Z,100084.62
2019-02-11T06:04:10.313Z,100086.27
2019-02-11T06:06:38.518Z,100099.35
2019-02-11T06:09:06.729Z,100103.65
2019-02-11T06:11:34.898Z,100111.59
2019-02-11T06:14:03.096Z,100104.46
2019-02-11T06:16:31.618Z,100127.30
2019-02-11T06:18:59.828Z,100130.94
2019-02-11T06:21:28.028Z,100137.40
2019-02-11T06:23:56.234Z,100138.20
2019-02-11T06:26:24.700Z,100140.05
2019-02-11T06:28:52.905Z,100144.83
2019-02-11T06:31:21.095Z,100162.38
2019-02-11T06:33:49.299Z,100164.05
2019-02-11T06:36:17.495Z,100177.95
2019-02-11T06:38:45.979Z,100184.42
2019-02-11T06:41:14.171Z,100195.50
2019-02-11T06:43:42.373Z,100208.92
2019-02-11T06:46:10.592Z,100213.41
2019-02-11T06:48:39.084Z,100220.69
2019-02-11T06:51:07.276Z,100224.66
2019-02-11T06:53:35.736Z,100237.56
2019-02-11T06:56:03.940Z,100251.61
2019-02-11T06:58:32.391Z,100262.71
2019-02-11T07:01:00.872Z,100266.35
2019-02-11T07:03:29.075Z,100272.31
2019-02-11T07:05:57.279Z,100269.33
2019-02-11T07:08:25.809Z,100274.30
2019-02-11T07:10:55.775Z,100294.15
2019-02-11T07:13:23.924Z,100292.98
2019-02-11T07:15:52.375Z,100291.17
2019-02-11T07:18:20.580Z,100294.81
2019-02-11T07:20:48.772Z,100314.66
2019-02-11T07:23:17.313Z,100321.28
2019-02-11T07:25:45.519Z,100327.23
2019-02-11T07:28:13.706Z,100328.56
2019-02-11T07:30:41.906Z,100329.70
2019-02-11T07:33:10.105Z,100337.49
2019-02-11T07:35:38.302Z,100343.93
2019-02-11T07:38:06.490Z,100353.05
2019-02-11T07:40:34.689Z,100362.64
2019-02-11T07:43:07.445Z,100366.95
2019-02-11T07:45:39.699Z,100378.86
2019-02-11T07:48:07.897Z,100369.41
2019-02-11T07:50:36.099Z,100377.17
2019-02-11T07:53:04.308Z,100382.47
2019-02-11T07:55:32.513Z,100390.08
2019-02-11T07:58:00.702Z,100399.69
2019-02-11T08:00:28.925Z,100401.34
2019-02-11T08:02:57.112Z,100409.28
2019-02-11T08:05:27.664Z,100411.27
2019-02-11T08:07:55.859Z,100421.53
2019-02-11T08:10:24.067Z,100431.14
2019-02-11T08:12:52.327Z,100438.90
2019-02-11T08:15:20.740Z,100441.73
2019-02-11T08:17:48.936Z,100445.70
2019-02-11T08:20:17.141Z,100456.30
2019-02-11T08:22:45.343Z,100458.10
2019-02-11T08:25:13.848Z,100457.63
2019-02-11T08:27:42.037Z,100468.55
2019-02-11T08:30:11.184Z,100456.96
2019-02-11T08:32:39.378Z,100458.28
2019-02-11T08:35:08.117Z,100463.25
2019-02-11T08:37:36.313Z,100475.50
2019-02-11T08:40:07.079Z,100477.30
2019-02-11T08:42:35.290Z,100472.85
2019-02-11T08:45:05.175Z,100479.45
2019-02-11T08:47:33.404Z,100502.97
2019-02-11T08:50:01.936Z,100488.06
2019-02-11T08:52:31.126Z,100502.64
2019-02-11T08:54:59.324Z,100519.05
2019-02-11T08:57:27.534Z,100514.89
2019-02-11T08:59:55.730Z,100522.18
2019-02-11T09:02:23.948Z,100528.14
2019-02-11T09:04:52.137Z,100534.77
2019-02-11T09:07:20.341Z,100533.45
2019-02-11T09:09:48.966Z,100545.38
2019-02-11T09:12:17.170Z,100545.05
2019-02-11T09:14:45.364Z,100556.32
2019-02-11T09:17:13.559Z,100558.61
2019-02-11T09:19:41.760Z,100574.19
2019-02-11T09:22:10.250Z,100581.67
2019-02-11T09:24:38.440Z,100581.48
2019-02-11T09:27:06.651Z,100580.83
2019-02-11T09:29:34.871Z,100575.86
2019-02-11T09:32:03.077Z,100598.40
2019-02-11T09:34:31.277Z,100603.70
2019-02-11T09:36:59.481Z,100603.05
2019-02-11T09:39:27.670Z,100617.92
2019-02-11T09:41:56.588Z,100611.66
2019-02-11T09:44:29.632Z,100624.92
2019-02-11T09:46:54.959Z,100638.84
2019-02-11T09:49:23.152Z,100636.49
2019-02-11T09:51:52.133Z,100644.12
2019-02-11T09:54:20.607Z,100636.50
2019-02-11T09:56:48.812Z,100656.39
2019-02-11T09:59:17.000Z,100665.34
2019-02-11T10:01:45.202Z,100664.86
2019-02-11T10:04:13.719Z,100666.02
2019-02-11T10:06:41.961Z,100678.10
2019-02-11T10:09:10.154Z,100683.08
2019-02-11T10:11:38.359Z,100681.60
2019-02-11T10:14:06.551Z,100696.86
2019-02-11T10:16:34.759Z,100691.05
2019-02-11T10:19:02.954Z,100692.88
2019-02-11T10:21:31.168Z,100717.09
2019-02-11T10:24:01.317Z,100717.41
2019-02-11T10:26:29.846Z,100728.03
2019-02-11T10:28:58.055Z,100735.66
2019-02-11T10:31:26.602Z,100752.55
2019-02-11T10:33:54.805Z,100758.54
2019-02-11T10:36:23.359Z,100757.55
2019-02-11T10:38:51.556Z,100764.20
2019-02-11T10:41:19.751Z,100773.13
2019-02-11T10:43:47.978Z,100774.45
2019-02-11T10:46:21.002Z,100784.41
2019-02-11T10:48:46.626Z,100786.41
2019-02-11T10:51:14.825Z,100797.35
2019-02-11T10:53:43.034Z,100803.33
2019-02-11T10:56:11.515Z,100800.02
2019-02-11T10:58:39.989Z,100809.64
2019-02-11T11:01:08.578Z,100807.98
2019-02-11T11:03:36.773Z,100816.60
2019-02-11T11:06:05.001Z,100826.58
2019-02-11T11:08:33.201Z,100848.13
2019-02-11T11:11:01.399Z,100836.50
2019-02-11T11:13:29.876Z,100853.41
2019-02-11T11:15:58.193Z,100854.06
2019-02-11T11:18:26.381Z,100862.70
2019-02-11T11:20:54.653Z,100856.77
2019-02-11T11:23:23.164Z,100869.72
2019-02-11T11:25:51.413Z,100865.42
2019-02-11T11:28:19.581Z,100878.35
2019-02-11T11:30:47.783Z,100884.66
2019-02-11T11:33:15.980Z,100882.67
2019-02-11T11:35:44.191Z,100885.66
2019-02-11T11:38:12.421Z,100897.29
2019-02-11T11:40:40.625Z,100885.18
2019-02-11T11:43:08.814Z,100903.27
2019-02-11T11:45:37.348Z,100899.28
2019-02-11T11:48:05.553Z,100910.91
2019-02-11T11:50:33.758Z,100914.56
2019-02-11T11:53:01.954Z,100926.85
2019-02-11T11:55:30.171Z,100953.09
2019-02-11T11:57:58.360Z,100950.92
2019-02-11T12:00:28.819Z,100950.10
2019-02-11T12:03:02.769Z,100967.37
2019-02-11T12:05:26.987Z,100958.39
2019-02-11T12:07:55.156Z,100964.88
2019-02-11T12:10:23.366Z,100970.01
2019-02-11T12:12:51.573Z,100970.83
2019-02-11T12:15:21.826Z,100980.66
2019-02-11T12:18:01.446Z,100976.02
2019-02-11T12:20:34.289Z,100977.20
2019-02-11T12:23:01.877Z,100983.34
2019-02-11T12:25:30.086Z,101006.59
2019-02-11T12:27:58.377Z,101002.57
2019-02-11T12:30:26.972Z,101016.53
2019-02-11T12:32:56.292Z,101009.86
2019-02-11T12:35:25.194Z,101017.31
2019-02-11T12:37:53.478Z,101031.41
2019-02-11T12:40:21.773Z,101027.56
2019-02-11T12:42:52.625Z,101045.31
2019-02-11T12:45:22.135Z,101043.63
2019-02-11T12:47:50.343Z,101061.72
2019-02-11T12:50:19.070Z,101058.53
2019-02-11T12:52:47.286Z,101094.86
2019-02-11T12:55:16.545Z,101079.44
2019-02-11T12:57:59.838Z,101087.08
2019-02-11T13:00:24.543Z,101097.12
2019-02-11T13:02:52.745Z,101098.19
2019-02-11T13:05:23.494Z,101096.59
2019-02-11T13:07:50.924Z,101108.05
2019-02-11T13:10:22.094Z,101118.17
2019-02-11T13:12:51.214Z,101119.11
2019-02-11T13:15:52.770Z,101138.17
2019-02-11T13:17:50.189Z,101137.48
2019-02-11T13:20:18.780Z,101137.80
2019-02-11T13:22:47.310Z,101146.61
2019-02-11T13:25:18.920Z,101135.00
2019-02-11T13:27:47.339Z,101146.97
2019-02-11T13:30:20.299Z,101157.59
2019-02-11T13:32:48.474Z,101152.61
2019-02-11T13:35:16.684Z,101172.92
2019-02-11T13:37:45.021Z,101174.61
2019-02-11T13:40:13.390Z,101180.07
2019-02-11T13:42:41.713Z,101183.81
2019-02-11T13:45:15.565Z,101187.61
2019-02-11T13:47:53.164Z,101197.08
2019-02-11T13:50:15.900Z,101199.42
2019-02-11T13:52:44.071Z,101217.36
2019-02-11T13:55:12.550Z,101218.03
2019-02-11T13:57:40.817Z,101236.66
2019-02-11T14:00:15.644Z,101241.34
2019-02-11T14:02:48.793Z,101245.64
2019-02-11T14:05:16.985Z,101260.91
2019-02-11T14:07:45.197Z,101270.73
2019-02-11T14:10:13.398Z,101268.81
2019-02-11T14:12:41.583Z,101285.69
2019-02-11T14:15:09.789Z,101295.22
2019-02-11T14:17:37.985Z,101293.38
2019-02-11T14:20:09.446Z,101308.64
2019-02-11T14:22:37.956Z,101299.62
2019-02-11T14:25:06.151Z,101300.20
2019-02-11T14:27:34.342Z,101316.14
2019-02-11T14:30:02.600Z,101316.42
2019-02-11T14:32:31.397Z,101311.39
2019-02-11T14:35:00.011Z,101317.52
2019-02-11T14:37:28.257Z,101323.91
2019-02-11T14:39:56.494Z,101341.27
2019-02-11T14:42:24.971Z,101343.13
2019-02-11T14:44:53.151Z,101347.80
2019-02-11T14:47:21.353Z,101356.97
2019-02-11T14:49:49.797Z,101367.98
2019-02-11T14:52:18.004Z,101374.95
2019-02-11T14:54:47.814Z,101367.62
2019-02-11T14:57:16.185Z,101365.30
2019-02-11T14:59:44.736Z,101371.97
2019-02-11T15:02:12.984Z,101382.63
2019-02-11T15:04:41.496Z,101397.96
2019-02-11T15:07:09.978Z,101415.20
2019-02-11T15:09:38.185Z,101419.37
2019-02-11T15:12:06.380Z,101419.57
2019-02-11T15:14:34.580Z,101419.83
2019-02-11T15:17:03.241Z,101421.10
2019-02-11T15:19:31.453Z,101421.08
2019-02-11T15:22:00.044Z,101442.17
2019-02-11T15:24:28.273Z,101445.59
2019-02-11T15:26:56.807Z,101461.16
2019-02-11T15:29:25.280Z,101447.56
2019-02-11T15:31:53.777Z,101458.62
2019-02-11T15:34:21.960Z,101472.33
2019-02-11T15:36:50.643Z,101470.36
2019-02-11T15:39:18.842Z,101461.70
2019-02-11T15:41:46.985Z,101465.83
2019-02-11T15:44:15.216Z,101481.67
2019-02-11T15:46:43.738Z,101493.09
2019-02-11T15:49:11.946Z,101490.56
2019-02-11T15:51:40.145Z,101502.88
2019-02-11T15:54:08.350Z,101503.61
2019-02-11T15:56:36.552Z,101513.89
2019-02-11T15:59:05.008Z,101522.84
2019-02-11T16:01:33.217Z,101541.24
2019-02-11T16:04:01.437Z,101548.00
2019-02-11T16:06:37.648Z,101564.28
2019-02-11T16:09:04.551Z,101575.41
2019-02-11T16:11:29.904Z,101581.28
2019-02-11T16:13:58.374Z,101577.76
2019-02-11T16:16:26.586Z,101597.12
2019-02-11T16:18:54.787Z,101608.49
2019-02-11T16:21:22.977Z,101605.31
2019-02-11T16:23:51.567Z,101623.65
2019-02-11T16:26:20.048Z,101634.42
2019-02-11T16:28:48.477Z,101645.52
2019-02-11T16:31:16.659Z,101681.48
2019-02-11T16:33:44.879Z,101690.64
2019-02-11T16:36:13.072Z,101689.22
2019-02-11T16:38:42.366Z,101696.58
2019-02-11T16:41:10.575Z,101717.13
2019-02-11T16:43:43.645Z,101698.88
2019-02-11T16:46:13.672Z,101705.41
2019-02-11T16:48:41.934Z,101712.13
2019-02-11T16:51:10.217Z,101712.74
2019-02-11T16:53:38.387Z,101718.17
2019-02-11T16:56:07.040Z,101730.67
2019-02-11T16:58:35.191Z,101724.67
2019-02-11T17:01:03.395Z,101745.82
2019-02-11T17:03:31.586Z,101740.64
2019-02-11T17:05:59.790Z,101771.05
2019-02-11T17:08:28.335Z,101794.38
2019-02-11T17:10:56.544Z,101765.87
2019-02-11T17:13:24.757Z,101776.91
2019-02-11T17:15:52.950Z,101798.53
2019-02-11T17:18:21.139Z,101777.95
2019-02-11T17:20:49.355Z,101804.16
2019-02-11T17:23:17.541Z,101800.44
2019-02-11T17:25:45.741Z,101816.16
2019-02-11T17:28:14.236Z,101803.33
2019-02-11T17:30:43.783Z,101813.44
2019-02-11T17:33:12.317Z,101813.47
2019-02-11T17:35:40.590Z,101815.63
2019-02-11T17:38:09.073Z,101823.45
2019-02-11T17:40:37.306Z,101821.88
2019-02-11T17:43:05.504Z,101828.98
2019-02-11T17:45:33.700Z,101852.64
2019-02-11T17:48:01.931Z,101838.35
2019-02-11T17:50:30.450Z,101854.93
2019-02-11T17:53:01.929Z,101850.36
2019-02-11T17:55:30.164Z,101861.16
2019-02-11T17:57:58.665Z,101852.77
2019-02-11T18:00:41.273Z,101870.31
2019-02-11T18:03:09.471Z,101868.74
2019-02-11T18:05:37.928Z,101888.44
2019-02-11T18:08:06.129Z,101893.59
2019-02-11T18:10:34.360Z,101879.55
2019-02-11T18:13:02.905Z,101875.10
2019-02-11T18:15:31.096Z,101878.23
2019-02-11T18:17:59.290Z,101901.18
2019-02-11T18:20:27.501Z,101896.27
2019-02-11T18:22:55.706Z,101904.80
2019-02-11T18:25:24.254Z,101916.34
2019-02-11T18:27:52.439Z,101913.33
2019-02-11T18:30:20.649Z,101914.29
2019-02-11T18:32:49.175Z,101925.10
2019-02-11T18:35:19.319Z,101932.45
2019-02-11T18:37:47.804Z,101925.48
2019-02-11T18:40:16.167Z,101933.28
2019-02-11T18:42:44.360Z,101942.77
2019-02-11T18:45:16.863Z,101953.57
2019-02-11T18:47:45.066Z,101961.27
2019-02-11T18:50:14.758Z,101971.47
2019-02-11T18:52:42.953Z,101975.90
2019-02-11T18:55:13.392Z,101983.23
2019-02-11T18:57:41.657Z,101987.42
2019-02-11T19:00:16.853Z,101980.23
2019-02-11T19:02:45.390Z,101989.73
2019-02-11T19:05:13.970Z,101989.50
2019-02-11T19:07:42.242Z,101991.78
2019-02-11T19:10:12.580Z,101996.80
2019-02-11T19:12:40.773Z,101999.81
2019-02-11T19:15:11.881Z,101990.43
2019-02-11T19:17:40.073Z,101988.98
2019-02-11T19:20:10.620Z,102001.09
2019-02-11T19:22:38.837Z,102009.84
2019-02-11T19:25:08.872Z,102008.42
2019-02-11T19:27:37.313Z,102012.24
2019-02-11T19:30:12.032Z,102020.39
2019-02-11T19:32:41.629Z,102018.94
2019-02-11T19:35:09.845Z,102031.05
2019-02-11T19:37:38.061Z,102035.97
2019-02-11T19:40:09.735Z,102027.44
2019-02-11T19:42:37.925Z,102018.79
2019-02-11T19:45:09.548Z,102029.20
2019-02-11T19:47:37.782Z,102023.66
2019-02-11T19:50:09.290Z,102044.41
2019-02-11T19:52:37.483Z,102035.43
2019-02-11T19:55:08.035Z,102037.34
2019-02-11T19:57:39.696Z,102039.61
2019-02-11T20:00:21.654Z,102036.70
2019-02-11T20:02:50.286Z,102035.97
2019-02-11T20:05:18.865Z,102044.61
2019-02-11T20:07:47.454Z,102043.50
2019-02-11T20:10:17.872Z,102047.69
2019-02-11T20:12:46.340Z,102041.31
2019-02-11T20:15:18.595Z,102044.08
2019-02-11T20:17:46.949Z,102041.53
2019-02-11T20:20:19.876Z,102053.04
2019-02-11T20:22:48.195Z,102059.39
2019-02-11T20:25:18.163Z,102056.48
2019-02-11T20:27:51.809Z,102057.09
2019-02-11T20:30:27.779Z,102059.37
2019-02-11T20:33:04.518Z,102071.00
2019-02-11T20:35:35.352Z,102081.33
2019-02-11T20:38:08.016Z,102071.88
2019-02-11T20:40:36.267Z,102083.17
2019-02-11T20:43:04.551Z,102086.17
2019-02-11T20:45:33.222Z,102086.81
2019-02-11T20:48:01.428Z,102103.27
2019-02-11T20:50:29.659Z,102103.27
2019-02-11T20:52:57.878Z,102100.98
2019-02-11T20:55:26.081Z,102115.63
2019-02-11T20:57:57.276Z,102124.13
2019-02-11T21:00:26.174Z,102124.23
2019-02-11T21:02:54.335Z,102139.60
2019-02-11T21:05:23.324Z,102132.14
2019-02-11T21:07:53.144Z,102137.80
2019-02-11T21:10:23.230Z,102131.78
2019-02-11T21:12:51.486Z,102130.67
2019-02-11T21:15:20.011Z,102129.57
2019-02-11T21:17:48.498Z,102132.42
2019-02-11T21:20:26.101Z,102130.25
2019-02-11T21:22:54.340Z,102135.00
2019-02-11T21:25:22.541Z,102145.40
2019-02-11T21:27:51.027Z,102143.34
2019-02-11T21:30:19.227Z,102145.24
2019-02-11T21:32:47.423Z,102148.00
2019-02-11T21:35:15.627Z,102148.00
2019-02-11T21:37:43.815Z,102155.42
2019-02-11T21:40:12.038Z,102155.05
2019-02-11T21:42:40.486Z,102148.09
2019-02-11T21:45:10.954Z,102157.33
2019-02-11T21:47:39.157Z,102156.50
2019-02-11T21:50:26.489Z,102164.87
2019-02-11T21:52:50.588Z,102165.82
2019-02-11T21:55:20.732Z,102169.94
2019-02-11T21:57:48.916Z,102174.79
2019-02-11T22:00:19.416Z,102180.02
2019-02-11T22:02:47.612Z,102175.59
2019-02-11T22:05:15.826Z,102177.44
2019-02-11T22:07:44.558Z,102180.61
2019-02-11T22:10:14.661Z,102183.41
2019-02-11T22:12:42.865Z,102184.97
2019-02-11T22:15:12.603Z,102195.31
2019-02-11T22:17:41.140Z,102205.20
2019-02-11T22:20:12.260Z,102199.20
2019-02-11T22:22:40.454Z,102206.45
2019-02-11T22:25:10.280Z,102202.38
2019-02-11T22:27:38.490Z,102189.30
2019-02-11T22:30:15.546Z,102198.17
2019-02-11T22:32:43.838Z,102207.04
2019-02-11T22:35:12.030Z,102213.73
2019-02-11T22:37:40.351Z,102230.06
2019-02-11T22:40:10.970Z,102229.11
2019-02-11T22:42:39.446Z,102235.12
2019-02-11T22:45:10.840Z,102240.16
2019-02-11T22:47:39.623Z,102225.92
2019-02-11T22:50:12.490Z,102230.49
2019-02-11T22:52:41.057Z,102233.87
2019-02-11T22:55:11.314Z,102233.66
2019-02-11T22:57:39.864Z,102239.67
2019-02-11T23:00:26.778Z,102235.13
2019-02-11T23:02:54.969Z,102240.20
2019-02-11T23:05:23.194Z,102245.84
2019-02-11T23:07:51.381Z,102242.63
2019-02-11T23:10:19.570Z,102235.06
2019-02-11T23:12:48.054Z,102252.23
2019-02-11T23:15:16.250Z,102242.63
2019-02-11T23:17:44.716Z,102238.30
2019-02-11T23:20:13.302Z,102249.66
2019-02-11T23:22:41.488Z,102259.70
2019-02-11T23:25:09.704Z,102271.64
2019-02-11T23:27:37.891Z,102261.53
2019-02-11T23:30:13.289Z,102263.28
2019-02-11T23:32:38.003Z,102269.34
2019-02-11T23:35:06.742Z,102271.09
2019-02-11T23:37:34.957Z,102279.05
2019-02-11T23:40:03.628Z,102281.53
2019-02-11T23:42:32.392Z,102280.45
2019-02-11T23:45:00.875Z,102280.66
2019-02-11T23:47:29.357Z,102278.59
2019-02-11T23:49:57.579Z,102277.27
2019-02-11T23:52:26.119Z,102275.22
2019-02-11T23:54:54.310Z,102272.45
2019-02-11T23:57:22.513Z,102283.75
2019-02-11T23:59:50.710Z,102287.63
